sensor_id;sensor_type;location;lat;lon;timestamp;P1;durP1;ratioP1;P2;durP2;ratioP2
53931;SDS011;39844;52.496;13.482;2023-06-14T00:03:27;2.13;;;1.70;;
53931;SDS011;39844;52.496;13.482;2023-06-14T00:05:52;1.77;;;1.67;;
53931;SDS011;39844;52.496;13.482;2023-06-14T00:08:17;1.80;;;1.70;;
53931;SDS011;39844;52.496;13.482;2023-06-14T00:10:43;1.37;;;1.37;;
53931;SDS011;39844;52.496;13.482;2023-06-14T00:13:10;2.17;;;1.90;;
53931;SDS011;39844;52.496;13.482;2023-06-14T00:15:36;2.17;;;1.60;;
53931;SDS011;39844;52.496;13.482;2023-06-14T00:18:02;2.60;;;1.50;;
53931;SDS011;39844;52.496;13.482;2023-06-14T00:20:28;1.80;;;1.70;;
53931;SDS011;39844;52.496;13.482;2023-06-14T00:22:54;1.70;;;1.60;;
53931;SDS011;39844;52.496;13.482;2023-06-14T00:25:20;1.80;;;1.70;;
53931;SDS011;39844;52.496;13.482;2023-06-14T00:27:47;1.80;;;1.70;;
53931;SDS011;39844;52.496;13.482;2023-06-14T00:30:12;1.73;;;1.63;;
53931;SDS011;39844;52.496;13.482;2023-06-14T00:32:38;2.60;;;1.77;;
53931;SDS011;39844;52.496;13.482;2023-06-14T00:35:03;2.07;;;1.90;;
53931;SDS011;39844;52.496;13.482;2023-06-14T00:37:29;4.93;;;1.70;;
53931;SDS011;39844;52.496;13.482;2023-06-14T00:39:54;1.80;;;1.70;;
53931;SDS011;39844;52.496;13.482;2023-06-14T00:42:25;1.80;;;1.70;;
53931;SDS011;39844;52.496;13.482;2023-06-14T00:44:52;3.60;;;1.70;;
53931;SDS011;39844;52.496;13.482;2023-06-14T00:47:17;1.90;;;1.80;;
53931;SDS011;39844;52.496;13.482;2023-06-14T00:49:43;1.67;;;1.57;;
53931;SDS011;39844;52.496;13.482;2023-06-14T00:52:10;1.47;;;1.47;;
53931;SDS011;39844;52.496;13.482;2023-06-14T00:54:35;1.70;;;1.60;;
53931;SDS011;39844;52.496;13.482;2023-06-14T00:57:00;1.93;;;1.83;;
53931;SDS011;39844;52.496;13.482;2023-06-14T00:59:26;5.30;;;1.90;;
53931;SDS011;39844;52.496;13.482;2023-06-14T01:01:51;3.27;;;2.20;;
53931;SDS011;39844;52.496;13.482;2023-06-14T01:04:16;3.23;;;2.10;;
53931;SDS011;39844;52.496;13.482;2023-06-14T01:06:50;1.97;;;1.87;;
53931;SDS011;39844;52.496;13.482;2023-06-14T01:09:39;1.57;;;1.57;;
53931;SDS011;39844;52.496;13.482;2023-06-14T01:12:37;4.30;;;2.20;;
53931;SDS011;39844;52.496;13.482;2023-06-14T01:15:09;2.30;;;2.10;;
53931;SDS011;39844;52.496;13.482;2023-06-14T01:17:37;3.33;;;1.90;;
53931;SDS011;39844;52.496;13.482;2023-06-14T01:20:03;2.13;;;2.03;;
53931;SDS011;39844;52.496;13.482;2023-06-14T01:22:29;2.07;;;1.97;;
53931;SDS011;39844;52.496;13.482;2023-06-14T01:24:55;2.30;;;2.10;;
53931;SDS011;39844;52.496;13.482;2023-06-14T01:27:23;4.03;;;2.10;;
53931;SDS011;39844;52.496;13.482;2023-06-14T01:29:51;2.10;;;2.00;;
53931;SDS011;39844;52.496;13.482;2023-06-14T01:32:18;2.23;;;2.10;;
53931;SDS011;39844;52.496;13.482;2023-06-14T01:34:44;2.47;;;1.90;;
53931;SDS011;39844;52.496;13.482;2023-06-14T01:37:10;2.20;;;2.00;;
53931;SDS011;39844;52.496;13.482;2023-06-14T01:39:37;3.10;;;2.23;;
53931;SDS011;39844;52.496;13.482;2023-06-14T01:42:02;2.20;;;2.10;;
53931;SDS011;39844;52.496;13.482;2023-06-14T01:44:29;1.80;;;1.70;;
53931;SDS011;39844;52.496;13.482;2023-06-14T01:46:56;2.83;;;2.50;;
53931;SDS011;39844;52.496;13.482;2023-06-14T01:49:21;3.07;;;2.43;;
53931;SDS011;39844;52.496;13.482;2023-06-14T01:51:47;2.50;;;2.10;;
53931;SDS011;39844;52.496;13.482;2023-06-14T01:54:12;3.80;;;2.30;;
53931;SDS011;39844;52.496;13.482;2023-06-14T01:56:37;2.20;;;2.10;;
53931;SDS011;39844;52.496;13.482;2023-06-14T01:59:03;2.47;;;2.20;;
53931;SDS011;39844;52.496;13.482;2023-06-14T02:01:28;2.63;;;2.43;;
53931;SDS011;39844;52.496;13.482;2023-06-14T02:03:53;5.17;;;2.40;;
53931;SDS011;39844;52.496;13.482;2023-06-14T02:06:18;2.10;;;2.00;;
53931;SDS011;39844;52.496;13.482;2023-06-14T02:08:44;2.53;;;2.33;;
53931;SDS011;39844;52.496;13.482;2023-06-14T02:11:09;2.77;;;2.57;;
53931;SDS011;39844;52.496;13.482;2023-06-14T02:13:34;2.77;;;2.40;;
53931;SDS011;39844;52.496;13.482;2023-06-14T02:16:00;4.13;;;2.40;;
53931;SDS011;39844;52.496;13.482;2023-06-14T02:18:26;2.57;;;2.37;;
53931;SDS011;39844;52.496;13.482;2023-06-14T02:20:51;6.83;;;2.63;;
53931;SDS011;39844;52.496;13.482;2023-06-14T02:23:16;2.00;;;1.90;;
53931;SDS011;39844;52.496;13.482;2023-06-14T02:25:42;2.13;;;2.03;;
53931;SDS011;39844;52.496;13.482;2023-06-14T02:28:07;4.57;;;2.77;;
53931;SDS011;39844;52.496;13.482;2023-06-14T02:30:32;2.27;;;2.17;;
53931;SDS011;39844;52.496;13.482;2023-06-14T02:32:57;2.93;;;2.50;;
53931;SDS011;39844;52.496;13.482;2023-06-14T02:35:23;2.47;;;2.27;;
53931;SDS011;39844;52.496;13.482;2023-06-14T02:37:48;2.70;;;2.30;;
53931;SDS011;39844;52.496;13.482;2023-06-14T02:40:13;2.63;;;2.40;;
53931;SDS011;39844;52.496;13.482;2023-06-14T02:42:39;4.13;;;2.70;;
53931;SDS011;39844;52.496;13.482;2023-06-14T02:45:04;2.93;;;2.63;;
53931;SDS011;39844;52.496;13.482;2023-06-14T02:47:30;3.30;;;2.83;;
53931;SDS011;39844;52.496;13.482;2023-06-14T02:49:55;2.70;;;2.47;;
53931;SDS011;39844;52.496;13.482;2023-06-14T02:52:20;2.70;;;2.50;;
53931;SDS011;39844;52.496;13.482;2023-06-14T02:54:46;2.50;;;2.30;;
53931;SDS011;39844;52.496;13.482;2023-06-14T02:57:11;2.80;;;2.60;;
53931;SDS011;39844;52.496;13.482;2023-06-14T02:59:36;3.07;;;2.80;;
53931;SDS011;39844;52.496;13.482;2023-06-14T03:02:02;4.00;;;3.20;;
53931;SDS011;39844;52.496;13.482;2023-06-14T03:04:27;2.70;;;2.50;;
53931;SDS011;39844;52.496;13.482;2023-06-14T03:06:52;2.20;;;2.10;;
53931;SDS011;39844;52.496;13.482;2023-06-14T03:09:18;2.20;;;2.10;;
53931;SDS011;39844;52.496;13.482;2023-06-14T03:11:43;4.50;;;2.50;;
53931;SDS011;39844;52.496;13.482;2023-06-14T03:14:08;2.47;;;2.37;;
53931;SDS011;39844;52.496;13.482;2023-06-14T03:16:34;3.33;;;3.00;;
53931;SDS011;39844;52.496;13.482;2023-06-14T03:19:02;3.57;;;2.37;;
53931;SDS011;39844;52.496;13.482;2023-06-14T03:21:27;3.73;;;2.70;;
53931;SDS011;39844;52.496;13.482;2023-06-14T03:23:52;4.43;;;2.70;;
53931;SDS011;39844;52.496;13.482;2023-06-14T03:26:17;2.50;;;2.30;;
53931;SDS011;39844;52.496;13.482;2023-06-14T03:28:44;3.63;;;2.60;;
53931;SDS011;39844;52.496;13.482;2023-06-14T03:31:10;2.40;;;2.20;;
53931;SDS011;39844;52.496;13.482;2023-06-14T03:33:35;4.60;;;2.80;;
53931;SDS011;39844;52.496;13.482;2023-06-14T03:36:01;2.87;;;2.63;;
53931;SDS011;39844;52.496;13.482;2023-06-14T03:38:27;3.00;;;2.80;;
53931;SDS011;39844;52.496;13.482;2023-06-14T03:40:52;2.90;;;2.70;;
53931;SDS011;39844;52.496;13.482;2023-06-14T03:43:17;2.90;;;2.67;;
53931;SDS011;39844;52.496;13.482;2023-06-14T03:45:43;2.57;;;2.37;;
53931;SDS011;39844;52.496;13.482;2023-06-14T03:48:08;2.70;;;2.50;;
53931;SDS011;39844;52.496;13.482;2023-06-14T03:50:34;4.30;;;2.73;;
53931;SDS011;39844;52.496;13.482;2023-06-14T03:52:59;2.83;;;2.63;;
53931;SDS011;39844;52.496;13.482;2023-06-14T03:55:25;2.77;;;2.57;;
53931;SDS011;39844;52.496;13.482;2023-06-14T03:57:51;2.33;;;2.17;;
53931;SDS011;39844;52.496;13.482;2023-06-14T04:00:16;2.87;;;2.37;;
53931;SDS011;39844;52.496;13.482;2023-06-14T04:02:42;2.97;;;2.73;;
53931;SDS011;39844;52.496;13.482;2023-06-14T04:05:07;5.13;;;2.77;;
53931;SDS011;39844;52.496;13.482;2023-06-14T04:07:33;3.00;;;2.57;;
53931;SDS011;39844;52.496;13.482;2023-06-14T04:09:58;3.03;;;2.63;;
53931;SDS011;39844;52.496;13.482;2023-06-14T04:12:23;2.90;;;2.70;;
53931;SDS011;39844;52.496;13.482;2023-06-14T04:14:48;2.90;;;2.60;;
53931;SDS011;39844;52.496;13.482;2023-06-14T04:17:14;3.00;;;2.77;;
53931;SDS011;39844;52.496;13.482;2023-06-14T04:19:39;2.70;;;2.50;;
53931;SDS011;39844;52.496;13.482;2023-06-14T04:22:04;3.17;;;2.40;;
53931;SDS011;39844;52.496;13.482;2023-06-14T04:24:30;4.53;;;2.60;;
53931;SDS011;39844;52.496;13.482;2023-06-14T04:26:55;2.83;;;2.50;;
53931;SDS011;39844;52.496;13.482;2023-06-14T04:29:20;3.30;;;3.00;;
53931;SDS011;39844;52.496;13.482;2023-06-14T04:31:46;4.70;;;2.97;;
53931;SDS011;39844;52.496;13.482;2023-06-14T04:34:12;3.13;;;2.87;;
53931;SDS011;39844;52.496;13.482;2023-06-14T04:36:38;2.87;;;2.67;;
53931;SDS011;39844;52.496;13.482;2023-06-14T04:39:03;4.13;;;2.73;;
53931;SDS011;39844;52.496;13.482;2023-06-14T04:41:29;3.27;;;2.93;;
53931;SDS011;39844;52.496;13.482;2023-06-14T04:43:56;5.43;;;2.57;;
53931;SDS011;39844;52.496;13.482;2023-06-14T04:46:22;2.90;;;2.70;;
53931;SDS011;39844;52.496;13.482;2023-06-14T04:48:47;3.00;;;2.63;;
53931;SDS011;39844;52.496;13.482;2023-06-14T04:51:12;2.77;;;2.67;;
53931;SDS011;39844;52.496;13.482;2023-06-14T04:53:38;2.70;;;2.50;;
53931;SDS011;39844;52.496;13.482;2023-06-14T04:56:03;2.83;;;2.63;;
53931;SDS011;39844;52.496;13.482;2023-06-14T04:58:28;3.77;;;2.63;;
53931;SDS011;39844;52.496;13.482;2023-06-14T05:00:54;2.60;;;2.40;;
53931;SDS011;39844;52.496;13.482;2023-06-14T05:03:20;3.50;;;2.70;;
53931;SDS011;39844;52.496;13.482;2023-06-14T05:05:45;4.77;;;2.93;;
53931;SDS011;39844;52.496;13.482;2023-06-14T05:08:10;5.17;;;2.83;;
53931;SDS011;39844;52.496;13.482;2023-06-14T05:10:36;3.60;;;3.30;;
53931;SDS011;39844;52.496;13.482;2023-06-14T05:13:01;3.13;;;2.53;;
53931;SDS011;39844;52.496;13.482;2023-06-14T05:15:27;2.87;;;2.50;;
53931;SDS011;39844;52.496;13.482;2023-06-14T05:17:52;4.13;;;3.13;;
53931;SDS011;39844;52.496;13.482;2023-06-14T05:20:18;3.30;;;2.60;;
53931;SDS011;39844;52.496;13.482;2023-06-14T05:22:43;4.27;;;2.60;;
53931;SDS011;39844;52.496;13.482;2023-06-14T05:25:08;3.90;;;2.90;;
53931;SDS011;39844;52.496;13.482;2023-06-14T05:27:34;7.00;;;3.57;;
53931;SDS011;39844;52.496;13.482;2023-06-14T05:29:59;3.13;;;2.70;;
53931;SDS011;39844;52.496;13.482;2023-06-14T05:32:24;3.60;;;2.90;;
53931;SDS011;39844;52.496;13.482;2023-06-14T05:34:50;3.40;;;2.80;;
53931;SDS011;39844;52.496;13.482;2023-06-14T05:37:15;2.70;;;2.50;;
53931;SDS011;39844;52.496;13.482;2023-06-14T05:39:40;5.60;;;2.70;;
53931;SDS011;39844;52.496;13.482;2023-06-14T05:42:05;2.50;;;2.30;;
53931;SDS011;39844;52.496;13.482;2023-06-14T05:44:31;3.30;;;3.10;;
53931;SDS011;39844;52.496;13.482;2023-06-14T05:46:56;3.07;;;2.50;;
53931;SDS011;39844;52.496;13.482;2023-06-14T05:49:21;2.80;;;2.60;;
53931;SDS011;39844;52.496;13.482;2023-06-14T05:51:47;4.27;;;2.73;;
53931;SDS011;39844;52.496;13.482;2023-06-14T05:54:12;2.60;;;2.40;;
53931;SDS011;39844;52.496;13.482;2023-06-14T05:56:37;2.73;;;2.50;;
53931;SDS011;39844;52.496;13.482;2023-06-14T05:59:02;4.37;;;2.70;;
53931;SDS011;39844;52.496;13.482;2023-06-14T06:01:28;3.57;;;2.90;;
53931;SDS011;39844;52.496;13.482;2023-06-14T06:03:53;3.17;;;2.87;;
53931;SDS011;39844;52.496;13.482;2023-06-14T06:06:18;3.30;;;3.00;;
53931;SDS011;39844;52.496;13.482;2023-06-14T06:08:44;5.63;;;3.17;;
53931;SDS011;39844;52.496;13.482;2023-06-14T06:11:09;3.23;;;2.67;;
53931;SDS011;39844;52.496;13.482;2023-06-14T06:13:34;2.77;;;2.53;;
53931;SDS011;39844;52.496;13.482;2023-06-14T06:16:00;6.73;;;2.70;;
53931;SDS011;39844;52.496;13.482;2023-06-14T06:18:26;4.47;;;3.40;;
53931;SDS011;39844;52.496;13.482;2023-06-14T06:20:51;4.80;;;2.67;;
53931;SDS011;39844;52.496;13.482;2023-06-14T06:23:16;6.53;;;3.13;;
53931;SDS011;39844;52.496;13.482;2023-06-14T06:25:42;3.47;;;3.17;;
53931;SDS011;39844;52.496;13.482;2023-06-14T06:28:07;2.83;;;2.63;;
53931;SDS011;39844;52.496;13.482;2023-06-14T06:30:33;2.80;;;2.60;;
53931;SDS011;39844;52.496;13.482;2023-06-14T06:32:58;4.07;;;2.93;;
53931;SDS011;39844;52.496;13.482;2023-06-14T06:35:23;3.37;;;3.07;;
53931;SDS011;39844;52.496;13.482;2023-06-14T06:37:49;3.17;;;2.97;;
53931;SDS011;39844;52.496;13.482;2023-06-14T06:40:14;4.20;;;2.73;;
53931;SDS011;39844;52.496;13.482;2023-06-14T06:42:39;4.57;;;2.50;;
53931;SDS011;39844;52.496;13.482;2023-06-14T06:45:05;3.63;;;2.63;;
53931;SDS011;39844;52.496;13.482;2023-06-14T06:47:30;3.73;;;2.73;;
53931;SDS011;39844;52.496;13.482;2023-06-14T06:49:56;5.20;;;2.73;;
53931;SDS011;39844;52.496;13.482;2023-06-14T06:52:21;3.10;;;2.53;;
53931;SDS011;39844;52.496;13.482;2023-06-14T06:54:46;2.93;;;2.40;;
53931;SDS011;39844;52.496;13.482;2023-06-14T06:57:12;4.37;;;2.60;;
53931;SDS011;39844;52.496;13.482;2023-06-14T06:59:37;3.23;;;2.67;;
53931;SDS011;39844;52.496;13.482;2023-06-14T07:02:02;6.97;;;2.87;;
53931;SDS011;39844;52.496;13.482;2023-06-14T07:04:29;2.77;;;2.57;;
53931;SDS011;39844;52.496;13.482;2023-06-14T07:06:55;5.83;;;3.03;;
53931;SDS011;39844;52.496;13.482;2023-06-14T07:09:20;4.90;;;2.67;;
53931;SDS011;39844;52.496;13.482;2023-06-14T07:11:46;2.83;;;2.30;;
53931;SDS011;39844;52.496;13.482;2023-06-14T07:14:12;4.10;;;2.60;;
53931;SDS011;39844;52.496;13.482;2023-06-14T07:16:37;2.73;;;2.27;;
53931;SDS011;39844;52.496;13.482;2023-06-14T07:19:02;2.40;;;2.30;;
53931;SDS011;39844;52.496;13.482;2023-06-14T07:21:28;3.63;;;2.80;;
53931;SDS011;39844;52.496;13.482;2023-06-14T07:23:54;2.57;;;2.33;;
53931;SDS011;39844;52.496;13.482;2023-06-14T07:26:20;2.97;;;2.60;;
53931;SDS011;39844;52.496;13.482;2023-06-14T07:28:46;3.97;;;3.03;;
53931;SDS011;39844;52.496;13.482;2023-06-14T07:31:12;4.00;;;2.80;;
53931;SDS011;39844;52.496;13.482;2023-06-14T07:33:37;3.30;;;3.00;;
53931;SDS011;39844;52.496;13.482;2023-06-14T07:36:03;2.70;;;2.50;;
53931;SDS011;39844;52.496;13.482;2023-06-14T07:38:28;3.33;;;2.57;;
53931;SDS011;39844;52.496;13.482;2023-06-14T07:40:53;2.80;;;2.60;;
53931;SDS011;39844;52.496;13.482;2023-06-14T07:43:19;5.53;;;3.10;;
53931;SDS011;39844;52.496;13.482;2023-06-14T07:45:44;3.80;;;2.30;;
53931;SDS011;39844;52.496;13.482;2023-06-14T07:48:09;2.97;;;2.53;;
53931;SDS011;39844;52.496;13.482;2023-06-14T07:50:35;3.50;;;2.30;;
53931;SDS011;39844;52.496;13.482;2023-06-14T07:53:00;2.90;;;2.70;;
53931;SDS011;39844;52.496;13.482;2023-06-14T07:55:25;3.17;;;2.60;;
53931;SDS011;39844;52.496;13.482;2023-06-14T07:57:51;2.97;;;2.37;;
53931;SDS011;39844;52.496;13.482;2023-06-14T08:00:16;3.67;;;2.77;;
53931;SDS011;39844;52.496;13.482;2023-06-14T08:02:42;2.93;;;2.73;;
53931;SDS011;39844;52.496;13.482;2023-06-14T08:05:09;4.30;;;2.60;;
53931;SDS011;39844;52.496;13.482;2023-06-14T08:07:35;2.60;;;2.40;;
53931;SDS011;39844;52.496;13.482;2023-06-14T08:10:00;2.83;;;2.63;;
53931;SDS011;39844;52.496;13.482;2023-06-14T08:12:25;2.30;;;2.20;;
53931;SDS011;39844;52.496;13.482;2023-06-14T08:14:51;5.50;;;2.33;;
53931;SDS011;39844;52.496;13.482;2023-06-14T08:17:16;3.93;;;2.67;;
53931;SDS011;39844;52.496;13.482;2023-06-14T08:19:41;2.10;;;1.97;;
53931;SDS011;39844;52.496;13.482;2023-06-14T08:22:07;2.33;;;2.10;;
53931;SDS011;39844;52.496;13.482;2023-06-14T08:24:32;3.07;;;2.20;;
53931;SDS011;39844;52.496;13.482;2023-06-14T08:26:57;2.77;;;2.27;;
53931;SDS011;39844;52.496;13.482;2023-06-14T08:29:22;3.13;;;2.50;;
53931;SDS011;39844;52.496;13.482;2023-06-14T08:31:48;3.13;;;2.20;;
53931;SDS011;39844;52.496;13.482;2023-06-14T08:34:13;2.60;;;2.07;;
53931;SDS011;39844;52.496;13.482;2023-06-14T08:36:38;8.38;;;2.33;;
53931;SDS011;39844;52.496;13.482;2023-06-14T08:39:04;5.30;;;2.43;;
53931;SDS011;39844;52.496;13.482;2023-06-14T08:41:29;2.83;;;1.80;;
53931;SDS011;39844;52.496;13.482;2023-06-14T08:43:55;4.90;;;2.13;;
53931;SDS011;39844;52.496;13.482;2023-06-14T08:46:21;2.40;;;2.20;;
53931;SDS011;39844;52.496;13.482;2023-06-14T08:48:49;2.20;;;2.00;;
53931;SDS011;39844;52.496;13.482;2023-06-14T08:51:17;2.20;;;2.10;;
53931;SDS011;39844;52.496;13.482;2023-06-14T08:53:44;1.60;;;1.60;;
53931;SDS011;39844;52.496;13.482;2023-06-14T08:56:09;2.20;;;1.75;;
53931;SDS011;39844;52.496;13.482;2023-06-14T08:58:35;2.55;;;2.35;;
53931;SDS011;39844;52.496;13.482;2023-06-14T09:01:01;2.85;;;1.98;;
53931;SDS011;39844;52.496;13.482;2023-06-14T09:03:26;2.22;;;2.03;;
53931;SDS011;39844;52.496;13.482;2023-06-14T09:05:52;3.38;;;2.42;;
53931;SDS011;39844;52.496;13.482;2023-06-14T09:08:17;4.90;;;1.90;;
53931;SDS011;39844;52.496;13.482;2023-06-14T09:10:43;2.17;;;2.08;;
53931;SDS011;39844;52.496;13.482;2023-06-14T09:13:09;4.40;;;2.58;;
53931;SDS011;39844;52.496;13.482;2023-06-14T09:15:34;2.17;;;2.08;;
53931;SDS011;39844;52.496;13.482;2023-06-14T09:18:03;2.35;;;2.15;;
53931;SDS011;39844;52.496;13.482;2023-06-14T09:20:29;3.10;;;2.15;;
53931;SDS011;39844;52.496;13.482;2023-06-14T09:22:55;4.50;;;2.45;;
53931;SDS011;39844;52.496;13.482;2023-06-14T09:25:21;2.58;;;2.38;;
53931;SDS011;39844;52.496;13.482;2023-06-14T09:27:46;4.85;;;2.20;;
53931;SDS011;39844;52.496;13.482;2023-06-14T09:30:12;2.50;;;2.30;;
53931;SDS011;39844;52.496;13.482;2023-06-14T09:32:37;3.67;;;2.05;;
53931;SDS011;39844;52.496;13.482;2023-06-14T09:35:04;2.20;;;2.10;;
53931;SDS011;39844;52.496;13.482;2023-06-14T09:37:31;2.63;;;2.25;;
53931;SDS011;39844;52.496;13.482;2023-06-14T09:39:57;3.42;;;1.98;;
53931;SDS011;39844;52.496;13.482;2023-06-14T09:42:23;3.42;;;2.05;;
53931;SDS011;39844;52.496;13.482;2023-06-14T09:44:49;4.63;;;2.33;;
53931;SDS011;39844;52.496;13.482;2023-06-14T09:47:16;2.45;;;2.13;;
53931;SDS011;39844;52.496;13.482;2023-06-14T09:49:42;1.90;;;1.80;;
53931;SDS011;39844;52.496;13.482;2023-06-14T09:52:12;2.08;;;1.98;;
53931;SDS011;39844;52.496;13.482;2023-06-14T09:54:43;2.17;;;2.03;;
53931;SDS011;39844;52.496;13.482;2023-06-14T09:57:13;1.90;;;1.80;;
53931;SDS011;39844;52.496;13.482;2023-06-14T09:59:41;2.38;;;2.17;;
53931;SDS011;39844;52.496;13.482;2023-06-14T10:04:58;2.10;;;2.00;;
53931;SDS011;39844;52.496;13.482;2023-06-14T10:07:28;3.35;;;2.35;;
53931;SDS011;39844;52.496;13.482;2023-06-14T10:09:56;4.05;;;2.22;;
53931;SDS011;39844;52.496;13.482;2023-06-14T10:12:22;2.47;;;2.15;;
53931;SDS011;39844;52.496;13.482;2023-06-14T10:14:50;5.45;;;2.40;;
53931;SDS011;39844;52.496;13.482;2023-06-14T10:17:20;1.80;;;1.70;;
53931;SDS011;39844;52.496;13.482;2023-06-14T10:19:56;2.45;;;2.25;;
53931;SDS011;39844;52.496;13.482;2023-06-14T10:22:32;3.15;;;1.92;;
53931;SDS011;39844;52.496;13.482;2023-06-14T10:25:10;2.28;;;2.08;;
53931;SDS011;39844;52.496;13.482;2023-06-14T10:27:38;3.63;;;2.20;;
53931;SDS011;39844;52.496;13.482;2023-06-14T10:30:03;2.13;;;2.03;;
53931;SDS011;39844;52.496;13.482;2023-06-14T10:32:31;2.70;;;2.20;;
53931;SDS011;39844;52.496;13.482;2023-06-14T10:34:58;2.50;;;2.30;;
53931;SDS011;39844;52.496;13.482;2023-06-14T10:37:25;3.38;;;2.20;;
53931;SDS011;39844;52.496;13.482;2023-06-14T10:39:50;3.47;;;1.90;;
53931;SDS011;39844;52.496;13.482;2023-06-14T10:42:16;3.38;;;2.20;;
53931;SDS011;39844;52.496;13.482;2023-06-14T10:44:43;6.50;;;2.30;;
53931;SDS011;39844;52.496;13.482;2023-06-14T10:47:25;2.40;;;2.20;;
53931;SDS011;39844;52.496;13.482;2023-06-14T10:50:07;2.22;;;2.13;;
53931;SDS011;39844;52.496;13.482;2023-06-14T10:52:38;3.78;;;2.17;;
53931;SDS011;39844;52.496;13.482;2023-06-14T10:57:30;6.10;;;2.30;;
53931;SDS011;39844;52.496;13.482;2023-06-14T10:59:55;5.30;;;2.25;;
53931;SDS011;39844;52.496;13.482;2023-06-14T11:05:10;4.78;;;2.35;;
53931;SDS011;39844;52.496;13.482;2023-06-14T11:07:58;4.85;;;2.17;;
53931;SDS011;39844;52.496;13.482;2023-06-14T11:10:35;5.93;;;2.03;;
53931;SDS011;39844;52.496;13.482;2023-06-14T11:13:01;2.88;;;2.25;;
53931;SDS011;39844;52.496;13.482;2023-06-14T11:15:29;2.67;;;2.15;;
53931;SDS011;39844;52.496;13.482;2023-06-14T11:17:55;2.45;;;2.00;;
53931;SDS011;39844;52.496;13.482;2023-06-14T11:20:24;2.97;;;2.20;;
53931;SDS011;39844;52.496;13.482;2023-06-14T11:22:50;6.70;;;2.35;;
53931;SDS011;39844;52.496;13.482;2023-06-14T11:25:16;2.10;;;2.00;;
53931;SDS011;39844;52.496;13.482;2023-06-14T11:27:41;2.22;;;2.03;;
53931;SDS011;39844;52.496;13.482;2023-06-14T11:30:07;2.40;;;2.20;;
53931;SDS011;39844;52.496;13.482;2023-06-14T11:32:33;2.65;;;2.22;;
53931;SDS011;39844;52.496;13.482;2023-06-14T11:34:58;4.00;;;2.10;;
53931;SDS011;39844;52.496;13.482;2023-06-14T11:37:25;2.20;;;2.00;;
53931;SDS011;39844;52.496;13.482;2023-06-14T11:39:51;2.70;;;2.10;;
53931;SDS011;39844;52.496;13.482;2023-06-14T11:42:17;2.63;;;2.42;;
53931;SDS011;39844;52.496;13.482;2023-06-14T11:44:43;2.67;;;2.47;;
53931;SDS011;39844;52.496;13.482;2023-06-14T11:47:10;1.88;;;1.77;;
53931;SDS011;39844;52.496;13.482;2023-06-14T11:49:36;2.85;;;2.25;;
53931;SDS011;39844;52.496;13.482;2023-06-14T11:52:01;2.47;;;2.20;;
53931;SDS011;39844;52.496;13.482;2023-06-14T11:54:27;2.83;;;2.00;;
53931;SDS011;39844;52.496;13.482;2023-06-14T11:56:52;3.08;;;2.30;;
53931;SDS011;39844;52.496;13.482;2023-06-14T11:59:18;3.08;;;2.60;;
53931;SDS011;39844;52.496;13.482;2023-06-14T12:01:45;3.63;;;2.03;;
53931;SDS011;39844;52.496;13.482;2023-06-14T12:04:12;7.13;;;2.38;;
53931;SDS011;39844;52.496;13.482;2023-06-14T12:06:38;2.10;;;2.00;;
53931;SDS011;39844;52.496;13.482;2023-06-14T12:09:06;2.58;;;2.20;;
53931;SDS011;39844;52.496;13.482;2023-06-14T12:11:32;2.05;;;1.88;;
53931;SDS011;39844;52.496;13.482;2023-06-14T12:13:59;2.08;;;1.88;;
53931;SDS011;39844;52.496;13.482;2023-06-14T12:16:29;3.38;;;2.30;;
53931;SDS011;39844;52.496;13.482;2023-06-14T12:18:56;2.40;;;2.20;;
53931;SDS011;39844;52.496;13.482;2023-06-14T12:21:25;2.40;;;1.77;;
53931;SDS011;39844;52.496;13.482;2023-06-14T12:23:51;4.28;;;1.95;;
53931;SDS011;39844;52.496;13.482;2023-06-14T12:26:18;3.35;;;2.08;;
53931;SDS011;39844;52.496;13.482;2023-06-14T12:28:44;2.40;;;2.20;;
53931;SDS011;39844;52.496;13.482;2023-06-14T12:31:11;4.50;;;2.10;;
53931;SDS011;39844;52.496;13.482;2023-06-14T12:33:37;2.20;;;2.03;;
53931;SDS011;39844;52.496;13.482;2023-06-14T12:36:04;2.58;;;2.10;;
53931;SDS011;39844;52.496;13.482;2023-06-14T12:38:30;2.10;;;2.00;;
53931;SDS011;39844;52.496;13.482;2023-06-14T12:40:55;2.55;;;2.00;;
53931;SDS011;39844;52.496;13.482;2023-06-14T12:43:20;1.90;;;1.75;;
53931;SDS011;39844;52.496;13.482;2023-06-14T12:45:46;5.68;;;2.17;;
53931;SDS011;39844;52.496;13.482;2023-06-14T12:48:11;1.90;;;1.80;;
53931;SDS011;39844;52.496;13.482;2023-06-14T12:50:36;2.25;;;2.05;;
53931;SDS011;39844;52.496;13.482;2023-06-14T12:53:02;4.10;;;2.13;;
53931;SDS011;39844;52.496;13.482;2023-06-14T12:55:27;1.90;;;1.83;;
53931;SDS011;39844;52.496;13.482;2023-06-14T12:57:52;2.25;;;2.05;;
53931;SDS011;39844;52.496;13.482;2023-06-14T13:00:17;2.75;;;2.15;;
53931;SDS011;39844;52.496;13.482;2023-06-14T13:02:43;3.13;;;2.30;;
53931;SDS011;39844;52.496;13.482;2023-06-14T13:05:08;6.75;;;2.05;;
53931;SDS011;39844;52.496;13.482;2023-06-14T13:07:34;3.97;;;1.90;;
53931;SDS011;39844;52.496;13.482;2023-06-14T13:09:59;2.30;;;1.75;;
53931;SDS011;39844;52.496;13.482;2023-06-14T13:12:24;3.72;;;2.08;;
53931;SDS011;39844;52.496;13.482;2023-06-14T13:14:50;3.53;;;2.28;;
53931;SDS011;39844;52.496;13.482;2023-06-14T13:17:15;4.07;;;2.08;;
53931;SDS011;39844;52.496;13.482;2023-06-14T13:19:40;2.45;;;2.25;;
53931;SDS011;39844;52.496;13.482;2023-06-14T13:22:06;2.58;;;2.38;;
53931;SDS011;39844;52.496;13.482;2023-06-14T13:24:31;3.80;;;2.00;;
53931;SDS011;39844;52.496;13.482;2023-06-14T13:26:57;4.13;;;2.38;;
53931;SDS011;39844;52.496;13.482;2023-06-14T13:29:22;3.50;;;2.05;;
53931;SDS011;39844;52.496;13.482;2023-06-14T13:31:48;2.65;;;2.00;;
53931;SDS011;39844;52.496;13.482;2023-06-14T13:34:14;2.10;;;1.88;;
53931;SDS011;39844;52.496;13.482;2023-06-14T13:36:39;2.28;;;2.13;;
53931;SDS011;39844;52.496;13.482;2023-06-14T13:39:04;2.65;;;2.15;;
53931;SDS011;39844;52.496;13.482;2023-06-14T13:41:31;2.25;;;2.00;;
53931;SDS011;39844;52.496;13.482;2023-06-14T13:43:57;2.45;;;2.25;;
53931;SDS011;39844;52.496;13.482;2023-06-14T13:46:23;3.58;;;2.17;;
53931;SDS011;39844;52.496;13.482;2023-06-14T13:48:48;2.25;;;2.05;;
53931;SDS011;39844;52.496;13.482;2023-06-14T13:51:13;6.90;;;2.30;;
53931;SDS011;39844;52.496;13.482;2023-06-14T13:53:38;4.18;;;2.00;;
53931;SDS011;39844;52.496;13.482;2023-06-14T13:56:04;2.70;;;2.50;;
53931;SDS011;39844;52.496;13.482;2023-06-14T13:58:29;2.30;;;2.10;;
53931;SDS011;39844;52.496;13.482;2023-06-14T14:00:54;4.88;;;2.17;;
53931;SDS011;39844;52.496;13.482;2023-06-14T14:03:20;2.88;;;2.40;;
53931;SDS011;39844;52.496;13.482;2023-06-14T14:05:45;2.67;;;2.22;;
53931;SDS011;39844;52.496;13.482;2023-06-14T14:08:10;3.97;;;2.25;;
53931;SDS011;39844;52.496;13.482;2023-06-14T14:10:36;3.25;;;1.92;;
53931;SDS011;39844;52.496;13.482;2023-06-14T14:13:01;2.30;;;2.10;;
53931;SDS011;39844;52.496;13.482;2023-06-14T14:15:26;1.92;;;1.83;;
53931;SDS011;39844;52.496;13.482;2023-06-14T14:17:52;4.95;;;2.13;;
53931;SDS011;39844;52.496;13.482;2023-06-14T14:20:17;4.45;;;2.00;;
53931;SDS011;39844;52.496;13.482;2023-06-14T14:22:44;2.08;;;1.98;;
53931;SDS011;39844;52.496;13.482;2023-06-14T14:25:10;3.92;;;2.20;;
53931;SDS011;39844;52.496;13.482;2023-06-14T14:27:35;3.65;;;2.67;;
53931;SDS011;39844;52.496;13.482;2023-06-14T14:30:01;2.65;;;2.28;;
53931;SDS011;39844;52.496;13.482;2023-06-14T14:32:26;5.30;;;2.08;;
53931;SDS011;39844;52.496;13.482;2023-06-14T14:34:51;2.30;;;1.95;;
53931;SDS011;39844;52.496;13.482;2023-06-14T14:37:17;2.35;;;2.17;;